Oxford, Kansas
Current Conditions -  °F | °C
As of 8:54 PM on Tuesday 25 Nov 2014 (Local Time) from KWLD Reporting Station
Clear Clear  
Wind Chill: 33°   Ceiling: Unl
Heat Index: 39°   Visibility: 10mi
Dew Point: 28°   Wind: 9mph
Humidity: 65%   Direction: 150°SSE
Pressure: 30.03"   Gusts: NA
Location:  37.27°N, 97.17°W
Report Text: KWLD 260254Z AUTO 15008KT 10SM CLR 04/M02 A3003 RMK AO2 SLP179 T00391022 58012
Loading
Personal Weather Stations






























Interactive Weather Map New forecast layout! Learn more

10-Day Weather Forecast

Advertisements
Track Severe Weather on mobile